Time,TemperatureF,DewpointF,PressureIn,WindDirection,WindDirectionDegrees,WindSpeedMPH,WindSpeedGustMPH,Humidity,HourlyPrecipIn,Conditions,Clouds,dailyrainin,SolarRadiationWatts/m^2,SoftwareType,DateUTC
2013-08-28 00:12:00,76.0,67.0,29.82,SW,223,9.0,-999.0,73,-99.99,,,0.00,0,weatherlink.com 1.10,2013-08-28 05:12:00,
2013-08-28 00:27:00,75.6,66.0,29.82,SW,234,6.0,-999.0,73,-99.99,,,0.00,0,weatherlink.com 1.10,2013-08-28 05:27:00,
2013-08-28 00:42:00,75.1,67.0,29.82,SW,230,7.0,-999.0,75,-99.99,,,0.00,0,weatherlink.com 1.10,2013-08-28 05:42:00,
2013-08-28 00:57:00,74.6,67.0,29.82,WSW,245,4.0,-999.0,76,-99.99,,,0.00,0,weatherlink.com 1.10,2013-08-28 05:57:00,
2013-08-28 01:12:00,74.4,66.0,29.82,WSW,240,6.0,-999.0,76,-99.99,,,0.00,0,weatherlink.com 1.10,2013-08-28 06:12:00,
2013-08-28 01:27:00,74.4,66.0,29.82,WSW,240,6.0,-999.0,76,-99.99,,,0.00,0,weatherlink.com 1.10,2013-08-28 06:27:00,
2013-08-28 01:42:00,74.7,66.0,29.82,WSW,243,10.0,-999.0,75,-99.99,,,0.00,0,weatherlink.com 1.10,2013-08-28 06:42:00,
2013-08-28 01:57:00,74.7,66.0,29.81,WSW,238,5.0,-999.0,75,-99.99,,,0.00,0,weatherlink.com 1.10,2013-08-28 06:57:00,
2013-08-28 02:12:00,74.2,66.0,29.81,WSW,243,5.0,-999.0,76,-99.99,,,0.00,0,weatherlink.com 1.10,2013-08-28 07:12:00,
2013-08-28 02:27:00,73.9,66.0,29.81,SW,236,4.0,-999.0,77,-99.99,,,0.00,0,weatherlink.com 1.10,2013-08-28 07:27:00,
2013-08-28 02:42:00,73.7,66.0,29.81,WSW,249,4.0,-999.0,78,-99.99,,,0.00,0,weatherlink.com 1.10,2013-08-28 07:42:00,
2013-08-28 02:57:00,73.7,66.0,29.81,WSW,247,4.0,-999.0,78,-99.99,,,0.00,0,weatherlink.com 1.10,2013-08-28 07:57:00,
2013-08-28 03:12:00,73.3,66.0,29.80,WSW,249,4.0,-999.0,79,-99.99,,,0.00,0,weatherlink.com 1.10,2013-08-28 08:12:00,
2013-08-28 03:27:00,73.2,66.0,29.81,WSW,242,5.0,-999.0,79,-99.99,,,0.00,0,weatherlink.com 1.10,2013-08-28 08:27:00,
2013-08-28 03:42:00,72.7,66.0,29.81,SW,236,3.0,-999.0,80,-99.99,,,0.00,0,weatherlink.com 1.10,2013-08-28 08:42:00,
2013-08-28 03:57:00,72.3,66.0,29.81,WSW,246,5.0,-999.0,81,-99.99,,,0.00,0,weatherlink.com 1.10,2013-08-28 08:57:00,
2013-08-28 04:12:00,72.7,66.0,29.81,WSW,257,7.0,-999.0,80,-99.99,,,0.00,0,weatherlink.com 1.10,2013-08-28 09:12:00,
2013-08-28 04:27:00,74.0,66.0,29.81,WSW,252,5.0,-999.0,76,-99.99,,,0.00,0,weatherlink.com 1.10,2013-08-28 09:27:00,
2013-08-28 04:42:00,74.6,66.0,29.81,WSW,248,6.0,-999.0,75,-99.99,,,0.00,0,weatherlink.com 1.10,2013-08-28 09:42:00,
2013-08-28 04:57:00,74.6,66.0,29.81,WSW,257,5.0,-999.0,74,-99.99,,,0.00,0,weatherlink.com 1.10,2013-08-28 09:57:00,
2013-08-28 05:12:00,74.2,66.0,29.81,West,259,5.0,-999.0,75,-99.99,,,0.00,0,weatherlink.com 1.10,2013-08-28 10:12:00,
2013-08-28 05:27:00,73.9,66.0,29.82,West,260,4.0,-999.0,76,-99.99,,,0.00,0,weatherlink.com 1.10,2013-08-28 10:27:00,
2013-08-28 05:42:00,73.2,66.0,29.83,West,260,4.0,-999.0,78,-99.99,,,0.00,0,weatherlink.com 1.10,2013-08-28 10:42:00,
2013-08-28 05:57:00,72.5,66.0,29.83,West,261,0.0,-999.0,80,-99.99,,,0.00,0,weatherlink.com 1.10,2013-08-28 10:57:00,
2013-08-28 06:12:00,71.3,66.0,29.84,West,261,0.0,-999.0,83,-99.99,,,0.00,0,weatherlink.com 1.10,2013-08-28 11:12:00,
2013-08-28 06:28:00,70.3,66.0,29.85,SW,229,4.0,-999.0,86,-99.99,,,0.00,7,weatherlink.com 1.10,2013-08-28 11:28:00,
2013-08-28 06:43:00,70.3,66.0,29.85,SW,235,5.0,-999.0,87,-99.99,,,0.00,18,weatherlink.com 1.10,2013-08-28 11:43:00,
2013-08-28 06:58:00,71.3,66.0,29.86,SW,232,6.0,-999.0,84,-99.99,,,0.00,30,weatherlink.com 1.10,2013-08-28 11:58:00,
2013-08-28 07:13:00,72.1,67.0,29.86,SW,236,4.0,-999.0,83,-99.99,,,0.00,49,weatherlink.com 1.10,2013-08-28 12:13:00,
2013-08-28 07:28:00,73.3,67.0,29.87,WSW,256,3.0,-999.0,80,-99.99,,,0.00,113,weatherlink.com 1.10,2013-08-28 12:28:00,
2013-08-28 07:43:00,75.1,67.0,29.87,West,263,5.0,-999.0,77,-99.99,,,0.00,162,weatherlink.com 1.10,2013-08-28 12:43:00,
2013-08-28 07:58:00,76.3,68.0,29.87,WSW,257,7.0,-999.0,76,-99.99,,,0.00,209,weatherlink.com 1.10,2013-08-28 12:58:00,
2013-08-28 08:13:00,77.6,69.0,29.87,West,266,6.0,-999.0,74,-99.99,,,0.00,255,weatherlink.com 1.10,2013-08-28 13:13:00,
2013-08-28 08:28:00,79.2,69.0,29.86,West,279,10.0,-999.0,70,-99.99,,,0.00,301,weatherlink.com 1.10,2013-08-28 13:28:00,
2013-08-28 08:43:00,80.3,69.0,29.86,WNW,296,6.0,-999.0,69,-99.99,,,0.00,343,weatherlink.com 1.10,2013-08-28 13:43:00,
2013-08-28 08:58:00,81.2,69.0,29.86,West,279,6.0,-999.0,67,-99.99,,,0.00,404,weatherlink.com 1.10,2013-08-28 13:58:00,
2013-08-28 09:13:00,81.8,70.0,29.86,NW,315,4.0,-999.0,67,-99.99,,,0.00,483,weatherlink.com 1.10,2013-08-28 14:13:00,
2013-08-28 09:28:00,82.4,70.0,29.86,WNW,283,2.0,-999.0,67,-99.99,,,0.00,320,weatherlink.com 1.10,2013-08-28 14:28:00,
2013-08-28 09:43:00,82.6,71.0,29.86,West,279,6.0,-999.0,67,-99.99,,,0.00,591,weatherlink.com 1.10,2013-08-28 14:43:00,
2013-08-28 09:58:00,83.8,71.0,29.86,West,275,4.0,-999.0,65,-99.99,,,0.00,552,weatherlink.com 1.10,2013-08-28 14:58:00,
2013-08-28 10:13:00,84.7,71.0,29.86,WNW,286,9.0,-999.0,64,-99.99,,,0.00,582,weatherlink.com 1.10,2013-08-28 15:13:00,
2013-08-28 10:28:00,85.5,72.0,29.86,West,265,6.0,-999.0,64,-99.99,,,0.00,626,weatherlink.com 1.10,2013-08-28 15:28:00,
2013-08-28 10:43:00,86.3,73.0,29.87,West,263,4.0,-999.0,65,-99.99,,,0.00,649,weatherlink.com 1.10,2013-08-28 15:43:00,
2013-08-28 10:59:00,86.7,73.0,29.87,WNW,290,3.0,-999.0,64,-99.99,,,0.00,675,weatherlink.com 1.10,2013-08-28 15:59:00,
2013-08-28 11:14:00,87.4,73.0,29.88,NW,304,0.0,-999.0,62,-99.99,,,0.00,693,weatherlink.com 1.10,2013-08-28 16:14:00,
2013-08-28 11:29:00,88.4,73.0,29.88,WNW,293,0.0,-999.0,61,-99.99,,,0.00,710,weatherlink.com 1.10,2013-08-28 16:29:00,
2013-08-28 11:44:00,89.3,75.0,29.87,WNW,290,3.0,-999.0,62,-99.99,,,0.00,740,weatherlink.com 1.10,2013-08-28 16:44:00,
2013-08-28 11:59:00,89.9,75.0,29.87,WNW,298,1.0,-999.0,62,-99.99,,,0.00,747,weatherlink.com 1.10,2013-08-28 16:59:00,
2013-08-28 12:14:00,89.5,75.0,29.87,NNW,342,3.0,-999.0,63,-99.99,,,0.00,763,weatherlink.com 1.10,2013-08-28 17:14:00,
2013-08-28 12:29:00,90.5,76.0,29.87,NW,323,0.0,-999.0,62,-99.99,,,0.00,770,weatherlink.com 1.10,2013-08-28 17:29:00,
2013-08-28 12:44:00,89.7,75.0,29.87,NW,319,4.0,-999.0,63,-99.99,,,0.00,773,weatherlink.com 1.10,2013-08-28 17:44:00,
2013-08-28 12:59:00,91.0,76.0,29.87,NNW,346,2.0,-999.0,62,-99.99,,,0.00,798,weatherlink.com 1.10,2013-08-28 17:59:00,
2013-08-28 13:29:00,89.3,77.0,29.87,NNE,16,1.0,-999.0,67,-99.99,,,0.00,475,weatherlink.com 1.10,2013-08-28 18:29:00,
2013-08-28 13:44:00,89.7,77.0,29.87,NNW,334,0.0,-999.0,66,-99.99,,,0.00,844,weatherlink.com 1.10,2013-08-28 18:44:00,
2013-08-28 13:59:00,91.4,77.0,29.87,NW,323,4.0,-999.0,63,-99.99,,,0.00,373,weatherlink.com 1.10,2013-08-28 18:59:00,
2013-08-28 14:14:00,92.3,77.0,29.87,WNW,300,3.0,-999.0,62,-99.99,,,0.00,745,weatherlink.com 1.10,2013-08-28 19:14:00,
2013-08-28 14:29:00,92.1,77.0,29.86,WNW,296,2.0,-999.0,61,-99.99,,,0.00,728,weatherlink.com 1.10,2013-08-28 19:29:00,
2013-08-28 14:44:00,93.8,78.0,29.86,West,281,2.0,-999.0,60,-99.99,,,0.00,724,weatherlink.com 1.10,2013-08-28 19:44:00,
2013-08-28 14:59:00,93.2,77.0,29.86,WNW,297,0.0,-999.0,60,-99.99,,,0.00,682,weatherlink.com 1.10,2013-08-28 19:59:00,
2013-08-28 15:14:00,92.5,78.0,29.86,WNW,298,3.0,-999.0,62,-99.99,,,0.00,710,weatherlink.com 1.10,2013-08-28 20:14:00,
2013-08-28 15:29:00,91.4,77.0,29.86,NNW,333,0.0,-999.0,63,-99.99,,,0.00,172,weatherlink.com 1.10,2013-08-28 20:29:00,
2013-08-28 15:44:00,91.4,79.0,29.86,NNW,333,0.0,-999.0,66,-99.99,,,0.00,547,weatherlink.com 1.10,2013-08-28 20:44:00,
2013-08-28 15:59:00,93.4,77.0,29.86,NNW,329,2.0,-999.0,60,-99.99,,,0.00,534,weatherlink.com 1.10,2013-08-28 20:59:00,
2013-08-28 16:14:00,93.4,77.0,29.86,NNW,331,2.0,-999.0,60,-99.99,,,0.00,585,weatherlink.com 1.10,2013-08-28 21:14:00,
2013-08-28 16:29:00,91.8,76.0,29.86,NNW,332,0.0,-999.0,61,-99.99,,,0.00,98,weatherlink.com 1.10,2013-08-28 21:29:00,
2013-08-28 16:44:00,91.0,79.0,29.86,NNW,332,0.0,-999.0,67,-99.99,,,0.00,427,weatherlink.com 1.10,2013-08-28 21:44:00,
2013-08-28 16:59:00,91.0,76.0,29.86,North,5,1.0,-999.0,62,-99.99,,,0.00,211,weatherlink.com 1.10,2013-08-28 21:59:00,
2013-08-28 17:14:00,90.3,78.0,29.86,NNE,18,4.0,-999.0,67,-99.99,,,0.00,148,weatherlink.com 1.10,2013-08-28 22:14:00,
2013-08-28 17:29:00,89.9,78.0,29.86,NNE,25,1.0,-999.0,67,-99.99,,,0.00,264,weatherlink.com 1.10,2013-08-28 22:29:00,
2013-08-28 17:44:00,89.9,78.0,29.86,NE,44,6.0,-999.0,68,-99.99,,,0.00,200,weatherlink.com 1.10,2013-08-28 22:44:00,
2013-08-28 17:59:00,88.8,78.0,29.86,NE,53,5.0,-999.0,71,-99.99,,,0.00,123,weatherlink.com 1.10,2013-08-28 22:59:00,
2013-08-28 18:14:00,88.2,78.0,29.86,NNE,30,0.0,-999.0,72,-99.99,,,0.00,148,weatherlink.com 1.10,2013-08-28 23:14:00,
2013-08-28 18:29:00,86.3,78.0,29.87,NNE,30,5.0,-999.0,76,-99.99,,,0.00,130,weatherlink.com 1.10,2013-08-28 23:29:00,
2013-08-28 18:44:00,84.9,78.0,29.88,ENE,61,4.0,-999.0,79,-99.99,,,0.00,44,weatherlink.com 1.10,2013-08-28 23:44:00,
2013-08-28 18:59:00,83.8,77.0,29.88,ENE,59,6.0,-999.0,79,-99.99,,,0.00,26,weatherlink.com 1.10,2013-08-28 23:59:00,
2013-08-28 19:14:00,83.2,76.0,29.88,ENE,60,6.0,-999.0,79,-99.99,,,0.00,21,weatherlink.com 1.10,2013-08-29 00:14:00,
2013-08-28 19:29:00,82.2,76.0,29.88,ENE,58,6.0,-999.0,80,-99.99,,,0.00,9,weatherlink.com 1.10,2013-08-29 00:29:00,
2013-08-28 19:44:00,81.2,75.0,29.89,ENE,65,6.0,-999.0,82,-99.99,,,0.00,0,weatherlink.com 1.10,2013-08-29 00:44:00,
2013-08-28 19:59:00,80.5,75.0,29.90,ENE,57,5.0,-999.0,83,-99.99,,,0.00,0,weatherlink.com 1.10,2013-08-29 00:59:00,
2013-08-28 20:14:00,79.8,75.0,29.90,ENE,62,6.0,-999.0,84,-99.99,,,0.00,0,weatherlink.com 1.10,2013-08-29 01:14:00,
2013-08-28 20:29:00,79.4,75.0,29.90,ENE,61,2.0,-999.0,85,-99.99,,,0.00,0,weatherlink.com 1.10,2013-08-29 01:29:00,
2013-08-28 20:44:00,78.5,74.0,29.91,NE,53,0.0,-999.0,87,-99.99,,,0.00,0,weatherlink.com 1.10,2013-08-29 01:44:00,
2013-08-28 20:59:00,78.5,74.0,29.91,NE,56,3.0,-999.0,87,-99.99,,,0.00,0,weatherlink.com 1.10,2013-08-29 01:59:00,
2013-08-28 21:14:00,77.7,74.0,29.91,ENE,57,0.0,-999.0,87,-99.99,,,0.00,0,weatherlink.com 1.10,2013-08-29 02:14:00,
2013-08-28 21:29:00,77.4,74.0,29.91,ENE,58,3.0,-999.0,88,-99.99,,,0.00,0,weatherlink.com 1.10,2013-08-29 02:29:00,
2013-08-28 21:44:00,76.8,73.0,29.91,ENE,57,2.0,-999.0,89,-99.99,,,0.00,0,weatherlink.com 1.10,2013-08-29 02:44:00,
2013-08-28 21:59:00,76.3,73.0,29.92,ENE,58,0.0,-999.0,89,-99.99,,,0.00,0,weatherlink.com 1.10,2013-08-29 02:59:00,
2013-08-28 22:14:00,75.8,73.0,29.92,ENE,59,0.0,-999.0,90,-99.99,,,0.00,0,weatherlink.com 1.10,2013-08-29 03:14:00,
2013-08-28 22:44:00,75.8,73.0,29.92,ENE,59,0.0,-999.0,91,-99.99,,,0.00,0,weatherlink.com 1.10,2013-08-29 03:44:00,
2013-08-28 22:59:00,75.6,73.0,29.92,ENE,59,0.0,-999.0,92,-99.99,,,0.00,0,weatherlink.com 1.10,2013-08-29 03:59:00,
2013-08-28 23:14:00,75.4,73.0,29.92,ENE,60,0.0,-999.0,92,-99.99,,,0.00,0,weatherlink.com 1.10,2013-08-29 04:14:00,
2013-08-28 23:29:00,74.9,73.0,29.92,ENE,61,0.0,-999.0,92,-99.99,,,0.00,0,weatherlink.com 1.10,2013-08-29 04:29:00,
2013-08-28 23:44:00,74.7,73.0,29.92,East,80,3.0,-999.0,93,-99.99,,,0.00,0,weatherlink.com 1.10,2013-08-29 04:44:00,
2013-08-28 23:59:00,74.9,73.0,29.92,ENE,77,4.0,-999.0,93,-99.99,,,0.00,0,weatherlink.com 1.10,2013-08-29 04:59:00,